createdAt,value
2023-04-19T00:00:22.953Z,35.40
2023-04-19T00:02:52.856Z,37.80
2023-04-19T00:05:24.957Z,28.23
2023-04-19T00:07:54.757Z,35.15
2023-04-19T00:10:23.959Z,43.72
2023-04-19T00:12:54.625Z,32.03
2023-04-19T00:15:24.230Z,36.35
2023-04-19T00:17:53.567Z,38.95
2023-04-19T00:20:23.993Z,31.75
2023-04-19T00:22:53.494Z,38.40
2023-04-19T00:25:22.586Z,30.33
2023-04-19T00:27:51.988Z,33.05
2023-04-19T00:30:22.956Z,35.75
2023-04-19T00:32:53.457Z,40.88
2023-04-19T00:35:22.761Z,42.15
2023-04-19T00:37:51.809Z,42.92
2023-04-19T00:40:21.752Z,38.38
2023-04-19T00:42:51.439Z,46.50
2023-04-19T00:45:20.526Z,47.83
2023-04-19T00:47:50.025Z,34.45
2023-04-19T00:50:21.473Z,41.33
2023-04-19T00:52:51.038Z,39.05
2023-04-19T00:55:20.371Z,44.17
2023-04-19T00:57:50.011Z,52.28
2023-04-19T01:00:21.178Z,45.45
2023-04-19T01:02:50.474Z,55.80
2023-04-19T01:05:21.360Z,51.08
2023-04-19T01:07:50.588Z,53.53
2023-04-19T01:10:20.210Z,43.20
2023-04-19T01:12:52.262Z,55.00
2023-04-19T01:15:21.664Z,45.92
2023-04-19T01:17:52.286Z,40.30
2023-04-19T01:20:23.399Z,52.95
2023-04-19T01:22:52.878Z,43.13
2023-04-19T01:25:22.701Z,43.15
2023-04-19T01:27:51.878Z,53.13
2023-04-19T01:30:21.151Z,53.90
2023-04-19T01:32:50.409Z,41.53
2023-04-19T01:35:24.540Z,33.25
2023-04-19T01:37:56.687Z,39.22
2023-04-19T01:40:32.759Z,43.70
2023-04-19T01:43:01.871Z,37.65
2023-04-19T01:45:31.456Z,31.33
2023-04-19T01:48:01.147Z,30.35
2023-04-19T01:50:30.540Z,31.10
2023-04-19T01:53:00.376Z,32.88
2023-04-19T01:55:32.882Z,25.25
2023-04-19T01:58:02.189Z,25.17
2023-04-19T02:00:31.488Z,27.83
2023-04-19T02:03:06.397Z,22.17
2023-04-19T02:05:36.442Z,22.50
2023-04-19T02:08:06.202Z,29.35
2023-04-19T02:10:35.806Z,21.77
2023-04-19T02:13:05.389Z,26.15
2023-04-19T02:15:38.235Z,28.60
2023-04-19T02:18:08.166Z,39.58
2023-04-19T02:20:37.398Z,50.20
2023-04-19T02:23:06.799Z,49.00
2023-04-19T02:25:36.228Z,49.78
2023-04-19T02:28:05.579Z,52.60
2023-04-19T02:30:34.810Z,43.58
2023-04-19T02:33:04.477Z,34.13
2023-04-19T02:35:35.843Z,31.52
2023-04-19T02:38:06.534Z,31.38
2023-04-19T02:40:36.097Z,32.50
2023-04-19T02:43:06.444Z,31.92
2023-04-19T02:45:36.140Z,33.08
2023-04-19T02:48:05.633Z,36.83
2023-04-19T02:50:34.947Z,45.13
2023-04-19T02:53:04.159Z,43.85
2023-04-19T02:55:34.748Z,35.03
2023-04-19T02:58:12.486Z,46.63
2023-04-19T03:00:49.431Z,31.73
2023-04-19T03:05:52.267Z,32.42
2023-04-19T03:08:21.763Z,42.65
2023-04-19T03:10:51.683Z,48.88
2023-04-19T03:13:21.154Z,40.70
2023-04-19T03:15:51.054Z,48.60
2023-04-19T03:18:24.001Z,40.75
2023-04-19T03:20:56.297Z,37.80
2023-04-19T03:23:28.367Z,37.30
2023-04-19T03:26:01.412Z,40.22
2023-04-19T03:28:39.016Z,45.60
2023-04-19T03:31:14.648Z,30.17
2023-04-19T03:33:44.941Z,29.00
2023-04-19T03:36:15.399Z,29.15
2023-04-19T03:38:47.280Z,27.10
2023-04-19T03:41:25.748Z,22.08
2023-04-19T03:44:06.906Z,24.40
2023-04-19T03:46:36.368Z,18.77
2023-04-19T03:49:05.995Z,21.88
2023-04-19T03:51:36.113Z,20.83
2023-04-19T03:54:05.505Z,24.63
2023-04-19T03:56:34.769Z,15.82
2023-04-19T03:59:04.346Z,26.67
2023-04-19T04:01:42.938Z,24.05
2023-04-19T04:04:16.370Z,22.85
2023-04-19T04:06:47.245Z,17.77
2023-04-19T04:09:18.913Z,25.10
2023-04-19T04:11:48.322Z,19.45
2023-04-19T04:14:17.924Z,24.85
2023-04-19T04:16:48.884Z,20.77
2023-04-19T04:19:20.124Z,20.98
2023-04-19T04:21:50.287Z,24.00
2023-04-19T04:24:21.448Z,24.55
2023-04-19T04:27:06.858Z,21.75
2023-04-19T04:29:39.334Z,25.92
2023-04-19T04:32:11.591Z,17.33
2023-04-19T04:34:44.153Z,23.05
2023-04-19T04:37:19.627Z,21.55
2023-04-19T04:39:50.401Z,24.30
2023-04-19T04:42:22.545Z,17.25
2023-04-19T04:44:52.345Z,20.00
2023-04-19T04:47:22.584Z,16.23
2023-04-19T04:49:56.343Z,27.83
2023-04-19T04:52:25.808Z,17.92
2023-04-19T04:55:07.866Z,22.92
2023-04-19T04:57:41.938Z,21.30
2023-04-19T05:00:17.000Z,17.05
2023-04-19T05:02:56.029Z,18.23
2023-04-19T05:05:26.157Z,14.50
2023-04-19T05:07:57.900Z,21.52
2023-04-19T05:10:28.030Z,12.88
2023-04-19T05:12:57.651Z,14.55
2023-04-19T05:15:27.557Z,23.10
2023-04-19T05:17:57.981Z,16.90
2023-04-19T05:20:28.888Z,12.77
2023-04-19T05:23:09.427Z,18.05
2023-04-19T05:25:39.533Z,15.65
2023-04-19T05:28:09.346Z,18.20
2023-04-19T05:30:56.634Z,19.73
2023-04-19T05:33:29.283Z,18.67
2023-04-19T05:35:59.531Z,25.50
2023-04-19T05:38:30.655Z,14.57
2023-04-19T05:41:05.549Z,27.35
2023-04-19T05:43:35.130Z,15.65
2023-04-19T05:46:05.247Z,17.50
2023-04-19T05:49:07.161Z,18.95
2023-04-19T05:51:40.640Z,17.27
2023-04-19T05:54:18.552Z,15.50
2023-04-19T05:56:50.042Z,14.18
2023-04-19T05:59:19.943Z,28.52
2023-04-19T06:01:49.295Z,13.70
2023-04-19T06:04:19.811Z,16.92
2023-04-19T06:06:49.648Z,15.35
2023-04-19T06:09:21.829Z,18.88
2023-04-19T06:11:52.089Z,15.85
2023-04-19T06:14:22.014Z,19.05
2023-04-19T06:16:52.015Z,15.23
2023-04-19T06:19:22.996Z,14.95
2023-04-19T06:21:52.350Z,13.57
2023-04-19T06:28:00.306Z,22.70
2023-04-19T06:30:29.857Z,17.88
2023-04-19T06:33:00.349Z,20.90
2023-04-19T06:35:29.671Z,24.27
2023-04-19T06:37:59.189Z,21.33
2023-04-19T06:40:30.394Z,24.50
2023-04-19T06:42:59.934Z,22.75
2023-04-19T06:45:30.498Z,28.50
2023-04-19T06:48:00.411Z,18.90
2023-04-19T06:50:29.942Z,27.88
2023-04-19T06:52:59.575Z,21.15
2023-04-19T06:55:29.015Z,12.95
2023-04-19T06:57:58.411Z,19.73
2023-04-19T07:00:27.928Z,11.85
2023-04-19T07:02:58.000Z,10.57
2023-04-19T07:05:28.054Z,10.68
2023-04-19T07:07:58.019Z,13.38
2023-04-19T07:10:28.117Z,13.40
2023-04-19T07:12:57.649Z,23.10
2023-04-19T07:15:27.173Z,16.20
2023-04-19T07:17:56.820Z,22.23
2023-04-19T07:20:26.782Z,18.48
2023-04-19T07:22:56.102Z,14.98
2023-04-19T07:25:25.487Z,20.75
2023-04-19T07:41:50.639Z,11.30
2023-04-19T07:44:21.066Z,15.30
2023-04-19T07:46:50.519Z,11.30
2023-04-19T07:49:34.532Z,17.42
2023-04-19T07:52:04.583Z,17.40
2023-04-19T07:57:33.510Z,14.57
2023-04-19T08:06:32.642Z,14.13
2023-04-19T08:09:02.776Z,9.65
2023-04-19T08:11:32.127Z,17.15
2023-04-19T08:14:11.978Z,17.75
2023-04-19T08:19:21.754Z,13.30
2023-04-19T08:21:54.977Z,11.13
2023-04-19T08:24:25.196Z,21.15
2023-04-19T08:26:56.326Z,12.60
2023-04-19T08:29:27.067Z,24.83
2023-04-19T08:31:57.281Z,11.32
2023-04-19T08:34:26.801Z,17.13
2023-04-19T08:37:03.340Z,14.95
2023-04-19T08:39:34.377Z,13.23
2023-04-19T08:42:18.110Z,14.65
2023-04-19T08:47:33.544Z,13.07
2023-04-19T08:50:24.134Z,16.48
2023-04-19T08:53:15.720Z,15.48
2023-04-19T08:56:10.588Z,16.10
2023-04-19T08:59:00.426Z,13.38
2023-04-19T09:01:35.843Z,17.02
2023-04-19T09:06:42.680Z,14.88
2023-04-19T09:27:45.396Z,11.95
2023-04-19T09:30:29.978Z,10.35
2023-04-19T09:33:03.778Z,11.85
2023-04-19T09:35:51.046Z,12.95
2023-04-19T09:38:24.164Z,14.70
2023-04-19T09:40:57.022Z,17.08
2023-04-19T09:43:57.546Z,19.33
2023-04-19T09:46:52.454Z,20.83
2023-04-19T09:50:23.809Z,19.95
2023-04-19T09:52:57.608Z,28.85
2023-04-19T09:56:02.761Z,24.27
2023-04-19T09:58:49.951Z,21.92
2023-04-19T10:01:26.061Z,22.30
2023-04-19T10:09:28.454Z,14.98
2023-04-19T10:12:16.114Z,19.50
2023-04-19T10:15:00.797Z,14.85
2023-04-19T10:17:35.136Z,17.63
2023-04-19T10:20:13.531Z,17.75
2023-04-19T10:22:44.261Z,16.73
2023-04-19T10:25:18.914Z,16.95
2023-04-19T10:27:57.559Z,21.63
2023-04-19T10:30:31.825Z,22.15
2023-04-19T10:33:09.080Z,18.42
2023-04-19T10:35:41.118Z,21.25
2023-04-19T10:38:19.608Z,21.52
2023-04-19T10:40:57.673Z,25.73
2023-04-19T10:43:31.251Z,25.98
2023-04-19T10:46:38.002Z,27.23
2023-04-19T10:49:12.384Z,20.50
2023-04-19T10:57:12.685Z,24.90
2023-04-19T10:59:45.413Z,19.13
2023-04-19T11:02:33.665Z,17.10
2023-04-19T11:18:36.149Z,24.60
2023-04-19T11:21:06.528Z,34.60
2023-04-19T11:23:38.574Z,26.90
2023-04-19T11:26:44.938Z,18.58
2023-04-19T11:33:46.625Z,21.38
2023-04-19T11:36:16.410Z,21.80
2023-04-19T11:42:23.263Z,25.48
2023-04-19T11:44:58.893Z,20.70
2023-04-19T11:47:29.899Z,20.42
2023-04-19T11:51:17.626Z,19.77
2023-04-19T11:54:19.626Z,20.45
2023-04-19T11:57:00.558Z,27.65
2023-04-19T11:59:31.345Z,26.92
2023-04-19T12:02:08.908Z,25.50
2023-04-19T12:04:40.368Z,25.38
2023-04-19T12:07:12.361Z,38.97
2023-04-19T12:09:42.673Z,31.15
2023-04-19T12:12:11.882Z,26.27
2023-04-19T12:15:13.693Z,25.23
2023-04-19T12:18:05.606Z,27.13
2023-04-19T12:20:39.944Z,21.60
2023-04-19T12:23:17.558Z,26.67
2023-04-19T12:25:51.184Z,22.13
2023-04-19T12:28:20.786Z,31.40
2023-04-19T12:30:50.717Z,33.30
2023-04-19T12:33:20.804Z,32.55
2023-04-19T12:35:51.669Z,29.90
2023-04-19T12:38:21.064Z,26.95
2023-04-19T12:40:50.876Z,20.92
2023-04-19T12:43:20.591Z,26.63
2023-04-19T12:45:50.428Z,29.15
2023-04-19T12:48:19.682Z,25.80
2023-04-19T12:50:49.969Z,20.00
2023-04-19T12:53:19.602Z,22.85
2023-04-19T12:55:50.315Z,29.65
2023-04-19T12:58:20.134Z,20.90
2023-04-19T13:01:21.469Z,15.50
2023-04-19T13:03:52.056Z,19.48
2023-04-19T13:06:22.040Z,15.18
2023-04-19T13:08:52.998Z,16.65
2023-04-19T13:11:24.422Z,20.42
2023-04-19T13:13:56.413Z,13.82
2023-04-19T13:16:26.699Z,17.17
2023-04-19T13:18:56.726Z,18.95
2023-04-19T13:21:26.520Z,17.00
2023-04-19T13:23:56.038Z,15.30
2023-04-19T13:26:25.247Z,17.20
2023-04-19T13:29:26.914Z,15.32
2023-04-19T13:31:56.804Z,23.67
2023-04-19T13:34:33.215Z,14.75
2023-04-19T13:37:02.657Z,16.58
2023-04-19T13:39:33.173Z,12.93
2023-04-19T13:42:03.431Z,14.50
2023-04-19T13:44:33.346Z,14.50
2023-04-19T13:47:02.970Z,10.02
2023-04-19T13:49:32.654Z,14.93
2023-04-19T13:52:02.110Z,8.73
2023-04-19T13:54:32.294Z,10.63
2023-04-19T13:57:02.434Z,9.63
2023-04-19T13:59:31.895Z,8.32
2023-04-19T14:02:01.892Z,9.93
2023-04-19T14:04:31.933Z,8.45
2023-04-19T14:07:01.777Z,10.25
2023-04-19T14:09:32.110Z,13.27
2023-04-19T14:12:03.003Z,16.77
2023-04-19T14:14:33.078Z,13.02
2023-04-19T14:17:02.964Z,11.55
2023-04-19T14:19:33.123Z,14.05
2023-04-19T14:22:03.229Z,13.00
2023-04-19T14:24:32.706Z,22.25
2023-04-19T14:29:35.300Z,17.52
2023-04-19T14:32:17.181Z,20.70
2023-04-19T14:34:54.769Z,20.40
2023-04-19T14:37:25.447Z,20.48
2023-04-19T14:39:56.752Z,20.25
2023-04-19T14:42:26.377Z,22.70
2023-04-19T14:44:57.575Z,23.20
2023-04-19T14:47:27.392Z,20.88
2023-04-19T14:49:57.021Z,25.10
2023-04-19T14:52:26.999Z,27.85
2023-04-19T14:54:56.520Z,29.40
2023-04-19T14:57:26.860Z,21.80
2023-04-19T15:00:03.224Z,24.52
2023-04-19T15:02:33.143Z,19.48
2023-04-19T15:05:02.534Z,25.20
2023-04-19T15:07:32.150Z,24.55
2023-04-19T15:10:02.091Z,30.20
2023-04-19T15:12:32.962Z,21.70
2023-04-19T15:15:03.207Z,28.48
2023-04-19T15:17:33.810Z,25.55
2023-04-19T15:20:03.766Z,33.97
2023-04-19T15:22:34.945Z,29.38
2023-04-19T15:25:05.016Z,30.20
2023-04-19T15:27:35.478Z,24.92
2023-04-19T15:30:06.275Z,30.38
2023-04-19T15:32:37.749Z,23.70
2023-04-19T15:35:15.072Z,26.58
2023-04-19T15:37:44.958Z,19.55
2023-04-19T15:40:15.855Z,21.17
2023-04-19T15:42:46.294Z,23.55
2023-04-19T15:45:18.161Z,20.92
2023-04-19T15:47:48.085Z,25.77
2023-04-19T15:50:17.818Z,24.70
2023-04-19T15:52:48.400Z,14.00
2023-04-19T15:55:18.830Z,23.50
2023-04-19T15:57:51.098Z,18.85
2023-04-19T16:00:20.984Z,24.33
2023-04-19T16:02:51.430Z,18.48
2023-04-19T16:05:21.847Z,21.52
2023-04-19T16:08:13.180Z,17.55
2023-04-19T16:10:43.365Z,21.88
2023-04-19T16:13:16.504Z,19.63
2023-04-19T16:15:47.285Z,22.30
2023-04-19T16:18:17.321Z,22.80
2023-04-19T16:20:46.859Z,22.45
2023-04-19T16:23:19.951Z,26.35
2023-04-19T16:25:49.751Z,26.48
2023-04-19T16:28:21.832Z,30.55
2023-04-19T16:30:51.422Z,25.43
2023-04-19T16:33:21.308Z,17.85
2023-04-19T16:35:52.085Z,22.73
2023-04-19T16:38:21.772Z,21.17
2023-04-19T16:40:52.658Z,35.22
2023-04-19T16:43:23.370Z,19.90
2023-04-19T16:45:53.467Z,19.38
2023-04-19T16:48:23.600Z,18.83
2023-04-19T16:50:53.082Z,25.85
2023-04-19T16:53:22.663Z,24.70
2023-04-19T16:55:53.148Z,16.98
2023-04-19T16:58:24.521Z,21.17
2023-04-19T17:00:53.699Z,19.60
2023-04-19T17:03:23.195Z,26.25
2023-04-19T17:05:53.223Z,27.70
2023-04-19T17:08:23.337Z,25.52
2023-04-19T17:10:53.254Z,30.75
2023-04-19T17:13:22.855Z,22.70
2023-04-19T17:15:54.159Z,34.53
2023-04-19T17:18:24.157Z,27.95
2023-04-19T17:20:53.642Z,28.88
2023-04-19T17:23:23.243Z,26.05
2023-04-19T17:25:53.625Z,27.40
2023-04-19T17:28:23.631Z,28.58
2023-04-19T17:30:54.816Z,31.83
2023-04-19T17:33:25.988Z,32.03
2023-04-19T17:35:55.586Z,24.40
2023-04-19T17:38:24.754Z,36.28
2023-04-19T17:40:54.992Z,34.53
2023-04-19T17:43:25.938Z,34.30
2023-04-19T17:45:56.353Z,32.00
2023-04-19T17:48:25.722Z,28.58
2023-04-19T17:50:55.234Z,23.48
2023-04-19T17:53:24.857Z,21.65
2023-04-19T17:55:54.717Z,27.15
2023-04-19T17:58:23.901Z,20.55
2023-04-19T18:00:53.610Z,21.77
2023-04-19T18:03:23.193Z,30.95
2023-04-19T18:05:53.011Z,29.48
2023-04-19T18:08:22.825Z,24.85
2023-04-19T18:10:52.124Z,26.42
2023-04-19T18:13:22.013Z,24.92
2023-04-19T18:15:51.764Z,25.38
2023-04-19T18:18:21.420Z,27.75
2023-04-19T18:20:51.042Z,28.25
2023-04-19T18:23:21.544Z,28.83
2023-04-19T18:25:57.476Z,27.83
2023-04-19T18:28:27.415Z,26.52
2023-04-19T18:30:57.845Z,28.13
2023-04-19T18:33:29.226Z,25.83
2023-04-19T18:35:59.525Z,31.45
2023-04-19T18:38:28.848Z,27.73
2023-04-19T18:40:59.485Z,34.70
2023-04-19T18:43:30.964Z,40.60
2023-04-19T18:46:02.679Z,35.83
2023-04-19T18:48:32.864Z,36.50
2023-04-19T18:51:03.546Z,34.38
2023-04-19T18:53:34.222Z,35.85
2023-04-19T18:56:05.478Z,39.28
2023-04-19T18:58:35.307Z,40.53
2023-04-19T19:02:10.032Z,38.97
2023-04-19T19:04:51.999Z,44.28
2023-04-19T19:07:59.111Z,38.50
2023-04-19T19:13:01.557Z,41.85
2023-04-19T19:15:31.081Z,28.35
2023-04-19T19:18:00.578Z,34.50
2023-04-19T19:20:29.941Z,28.48
2023-04-19T19:22:59.958Z,25.88
2023-04-19T19:25:30.217Z,18.65
2023-04-19T19:30:34.763Z,15.35
2023-04-19T19:33:06.009Z,16.95
2023-04-19T19:35:36.120Z,18.85
2023-04-19T19:38:06.353Z,13.70
2023-04-19T19:40:40.856Z,14.05
2023-04-19T19:43:25.457Z,14.70
2023-04-19T19:45:54.929Z,12.05
2023-04-19T19:48:25.463Z,15.48
2023-04-19T19:51:24.858Z,13.50
2023-04-19T19:53:45.358Z,15.95
2023-04-19T19:56:21.462Z,20.65
2023-04-19T19:58:52.706Z,16.58
2023-04-19T20:01:23.424Z,18.45
2023-04-19T20:03:56.151Z,20.05
2023-04-19T20:07:15.557Z,20.58
2023-04-19T20:09:19.532Z,15.15
2023-04-19T20:11:50.009Z,20.45
2023-04-19T20:14:20.596Z,16.70
2023-04-19T20:16:50.193Z,14.80
2023-04-19T20:19:20.727Z,19.35
2023-04-19T20:21:50.582Z,16.00
2023-04-19T20:24:19.775Z,12.13
2023-04-19T20:26:52.080Z,14.13
2023-04-19T20:29:22.014Z,12.20
2023-04-19T20:31:52.677Z,15.77
2023-04-19T20:34:22.433Z,17.00
2023-04-19T20:36:52.865Z,12.50
2023-04-19T20:39:22.895Z,17.02
2023-04-19T20:41:55.335Z,15.32
2023-04-19T20:44:25.033Z,19.10
2023-04-19T20:46:54.681Z,22.70
2023-04-19T20:49:23.834Z,16.67
2023-04-19T20:51:53.982Z,26.80
2023-04-19T20:54:23.424Z,29.45
2023-04-19T20:56:55.196Z,43.03
2023-04-19T20:59:24.679Z,41.88
2023-04-19T21:01:54.845Z,34.55
2023-04-19T21:04:24.396Z,42.13
2023-04-19T21:06:53.630Z,39.47
2023-04-19T21:09:23.164Z,39.08
2023-04-19T21:11:52.823Z,34.35
2023-04-19T21:14:21.871Z,38.22
2023-04-19T21:17:28.284Z,36.90
2023-04-19T21:19:57.820Z,27.77
2023-04-19T21:22:59.576Z,31.15
2023-04-19T21:25:28.863Z,25.25
2023-04-19T21:42:03.060Z,32.30
2023-04-19T21:44:32.422Z,28.00
2023-04-19T21:47:06.307Z,30.85
2023-04-19T21:50:07.490Z,29.08
2023-04-19T21:57:07.776Z,27.67
2023-04-19T21:59:37.306Z,22.25
2023-04-19T22:51:51.824Z,12.02
2023-04-19T22:54:53.090Z,13.05
2023-04-19T22:57:22.784Z,8.48
2023-04-19T22:59:51.992Z,4.32
2023-04-19T23:06:20.725Z,9.55
2023-04-19T23:08:50.336Z,5.18
2023-04-19T23:11:19.867Z,9.70
2023-04-19T23:41:50.400Z,15.18
2023-04-19T23:44:20.077Z,4.40
2023-04-19T23:46:49.902Z,5.18
2023-04-19T23:49:19.609Z,5.00
2023-04-19T23:51:51.314Z,7.50
2023-04-19T23:54:23.391Z,12.68
2023-04-19T23:56:53.837Z,6.13
2023-04-19T23:59:27.917Z,11.60
